sensor_id;sensor_type;location;lat;lon;timestamp;pressure;altitude;pressure_sealevel;temperature;humidity
79540;BME280;68991;52.122;5.406;2023-11-22T00:00:13;102929.72;;;19.63;64.78
79540;BME280;68991;52.122;5.406;2023-11-22T00:02:40;102924.44;;;19.60;64.48
79540;BME280;68991;52.122;5.406;2023-11-22T00:05:07;102930.00;;;19.59;64.43
79540;BME280;68991;52.122;5.406;2023-11-22T00:07:34;102931.00;;;19.56;64.54
79540;BME280;68991;52.122;5.406;2023-11-22T00:10:00;102921.22;;;19.52;64.40
79540;BME280;68991;52.122;5.406;2023-11-22T00:12:27;102929.50;;;19.51;64.03
79540;BME280;68991;52.122;5.406;2023-11-22T00:14:54;102924.22;;;19.48;64.36
79540;BME280;68991;52.122;5.406;2023-11-22T00:17:20;102944.34;;;19.45;64.42
79540;BME280;68991;52.122;5.406;2023-11-22T00:19:48;102955.34;;;19.44;64.44
79540;BME280;68991;52.122;5.406;2023-11-22T00:22:14;102956.41;;;19.41;64.99
79540;BME280;68991;52.122;5.406;2023-11-22T00:24:41;102953.78;;;19.38;64.49
79540;BME280;68991;52.122;5.406;2023-11-22T00:27:08;102954.84;;;19.35;64.42
79540;BME280;68991;52.122;5.406;2023-11-22T00:29:37;102960.41;;;19.34;64.33
79540;BME280;68991;52.122;5.406;2023-11-22T00:32:03;102953.22;;;19.31;64.38
79540;BME280;68991;52.122;5.406;2023-11-22T00:34:31;102963.34;;;19.29;64.30
79540;BME280;68991;52.122;5.406;2023-11-22T00:36:57;102959.81;;;19.27;64.40
79540;BME280;68991;52.122;5.406;2023-11-22T00:39:23;102958.22;;;19.23;64.37
79540;BME280;68991;52.122;5.406;2023-11-22T00:41:50;102951.06;;;19.21;64.55
79540;BME280;68991;52.122;5.406;2023-11-22T00:44:17;102951.16;;;19.19;64.56
79540;BME280;68991;52.122;5.406;2023-11-22T00:46:44;102946.72;;;19.17;64.77
79540;BME280;68991;52.122;5.406;2023-11-22T00:49:12;102948.59;;;19.16;64.54
79540;BME280;68991;52.122;5.406;2023-11-22T00:51:39;102951.47;;;19.13;64.46
79540;BME280;68991;52.122;5.406;2023-11-22T00:54:05;102954.28;;;19.12;64.39
79540;BME280;68991;52.122;5.406;2023-11-22T00:56:32;102956.19;;;19.10;64.46
79540;BME280;68991;52.122;5.406;2023-11-22T00:58:59;102960.84;;;19.08;64.23
79540;BME280;68991;52.122;5.406;2023-11-22T01:01:30;102970.97;;;19.06;64.33
79540;BME280;68991;52.122;5.406;2023-11-22T01:03:58;102972.00;;;19.03;63.86
79540;BME280;68991;52.122;5.406;2023-11-22T01:06:24;102983.00;;;19.02;64.36
79540;BME280;68991;52.122;5.406;2023-11-22T01:08:51;102986.72;;;18.99;64.32
79540;BME280;68991;52.122;5.406;2023-11-22T01:11:17;102994.06;;;18.99;64.43
79540;BME280;68991;52.122;5.406;2023-11-22T01:13:44;102997.88;;;18.95;64.27
79540;BME280;68991;52.122;5.406;2023-11-22T01:16:10;103005.25;;;18.93;64.25
79540;BME280;68991;52.122;5.406;2023-11-22T01:18:37;103015.34;;;18.91;64.44
79540;BME280;68991;52.122;5.406;2023-11-22T01:21:05;103017.25;;;18.88;64.16
79540;BME280;68991;52.122;5.406;2023-11-22T01:23:32;103015.56;;;18.86;64.42
79540;BME280;68991;52.122;5.406;2023-11-22T01:25:58;103032.03;;;18.84;64.42
79540;BME280;68991;52.122;5.406;2023-11-22T01:28:26;103029.28;;;18.84;64.27
79540;BME280;68991;52.122;5.406;2023-11-22T01:31:00;103039.38;;;18.82;64.33
79540;BME280;68991;52.122;5.406;2023-11-22T01:33:28;103038.56;;;18.80;63.98
79540;BME280;68991;52.122;5.406;2023-11-22T01:35:55;103031.41;;;18.78;64.46
79540;BME280;68991;52.122;5.406;2023-11-22T01:38:22;103034.22;;;18.76;64.61
79540;BME280;68991;52.122;5.406;2023-11-22T01:40:51;103037.00;;;18.75;64.19
79540;BME280;68991;52.122;5.406;2023-11-22T01:43:18;103045.28;;;18.73;64.27
79540;BME280;68991;52.122;5.406;2023-11-22T01:45:45;103044.47;;;18.71;64.18
79540;BME280;68991;52.122;5.406;2023-11-22T01:48:12;103038.22;;;18.69;64.18
79540;BME280;68991;52.122;5.406;2023-11-22T01:50:39;103031.94;;;18.67;64.16
79540;BME280;68991;52.122;5.406;2023-11-22T01:53:08;103032.91;;;18.66;64.11
79540;BME280;68991;52.122;5.406;2023-11-22T01:55:36;103034.81;;;18.64;64.07
79540;BME280;68991;52.122;5.406;2023-11-22T01:58:02;103032.19;;;18.63;64.05
79540;BME280;68991;52.122;5.406;2023-11-22T02:00:33;103031.34;;;18.61;64.03
79540;BME280;68991;52.122;5.406;2023-11-22T02:03:02;103032.34;;;18.60;63.97
79540;BME280;68991;52.122;5.406;2023-11-22T02:05:29;103029.72;;;18.57;64.00
79540;BME280;68991;52.122;5.406;2023-11-22T02:07:56;103037.06;;;18.56;63.98
79540;BME280;68991;52.122;5.406;2023-11-22T02:10:23;103038.94;;;18.54;64.11
79540;BME280;68991;52.122;5.406;2023-11-22T02:12:50;103038.16;;;18.52;64.00
79540;BME280;68991;52.122;5.406;2023-11-22T02:15:16;103045.47;;;18.50;63.85
79540;BME280;68991;52.122;5.406;2023-11-22T02:17:43;103043.72;;;18.49;64.31
79540;BME280;68991;52.122;5.406;2023-11-22T02:20:10;103037.44;;;18.47;63.90
79540;BME280;68991;52.122;5.406;2023-11-22T02:22:44;103043.84;;;18.46;63.85
79540;BME280;68991;52.122;5.406;2023-11-22T02:25:12;103049.38;;;18.45;63.96
79540;BME280;68991;52.122;5.406;2023-11-22T02:27:39;103049.44;;;18.43;64.00
79540;BME280;68991;52.122;5.406;2023-11-22T02:30:06;103043.97;;;18.43;63.82
79540;BME280;68991;52.122;5.406;2023-11-22T02:32:33;103035.97;;;18.40;63.50
79540;BME280;68991;52.122;5.406;2023-11-22T02:35:00;103036.91;;;18.39;64.00
79540;BME280;68991;52.122;5.406;2023-11-22T02:37:27;103027.94;;;18.37;63.83
79540;BME280;68991;52.122;5.406;2023-11-22T02:42:40;103020.81;;;18.34;63.92
79540;BME280;68991;52.122;5.406;2023-11-22T02:45:06;103023.59;;;18.33;63.75
79540;BME280;68991;52.122;5.406;2023-11-22T02:47:33;103028.25;;;18.31;63.56
79540;BME280;68991;52.122;5.406;2023-11-22T02:50:02;103029.19;;;18.30;63.71
79540;BME280;68991;52.122;5.406;2023-11-22T02:52:29;103027.41;;;18.29;63.25
79540;BME280;68991;52.122;5.406;2023-11-22T02:54:55;103022.06;;;18.27;63.73
79540;BME280;68991;52.122;5.406;2023-11-22T02:57:22;103023.88;;;18.27;63.65
79540;BME280;68991;52.122;5.406;2023-11-22T02:59:48;103015.78;;;18.25;63.40
79540;BME280;68991;52.122;5.406;2023-11-22T03:02:15;103013.22;;;18.22;63.27
79540;BME280;68991;52.122;5.406;2023-11-22T03:04:43;103022.31;;;18.21;63.57
79540;BME280;68991;52.122;5.406;2023-11-22T03:07:10;103018.81;;;18.19;63.54
79540;BME280;68991;52.122;5.406;2023-11-22T03:09:36;103016.13;;;18.18;63.44
79540;BME280;68991;52.122;5.406;2023-11-22T03:12:03;103025.28;;;18.17;63.40
79540;BME280;68991;52.122;5.406;2023-11-22T03:14:29;103024.41;;;18.16;63.54
79540;BME280;68991;52.122;5.406;2023-11-22T03:16:56;103033.59;;;18.14;63.35
79540;BME280;68991;52.122;5.406;2023-11-22T03:19:22;103043.59;;;18.13;63.40
79540;BME280;68991;52.122;5.406;2023-11-22T03:21:50;103046.38;;;18.12;63.46
79540;BME280;68991;52.122;5.406;2023-11-22T03:24:16;103053.75;;;18.10;63.38
79540;BME280;68991;52.122;5.406;2023-11-22T03:26:43;103051.97;;;18.09;63.54
79540;BME280;68991;52.122;5.406;2023-11-22T03:29:11;103053.84;;;18.07;63.37
79540;BME280;68991;52.122;5.406;2023-11-22T03:31:38;103060.34;;;18.04;63.37
79540;BME280;68991;52.122;5.406;2023-11-22T03:34:05;103066.66;;;18.05;63.32
79540;BME280;68991;52.122;5.406;2023-11-22T03:36:32;103074.88;;;18.03;63.23
79540;BME280;68991;52.122;5.406;2023-11-22T03:38:58;103080.41;;;18.02;63.31
79540;BME280;68991;52.122;5.406;2023-11-22T03:41:25;103089.53;;;18.01;63.14
79540;BME280;68991;52.122;5.406;2023-11-22T03:43:51;103093.19;;;18.00;63.26
79540;BME280;68991;52.122;5.406;2023-11-22T03:46:18;103086.94;;;17.98;63.30
79540;BME280;68991;52.122;5.406;2023-11-22T03:48:44;103091.50;;;17.97;63.19
79540;BME280;68991;52.122;5.406;2023-11-22T03:51:11;103096.16;;;17.95;63.56
79540;BME280;68991;52.122;5.406;2023-11-22T03:53:37;103102.53;;;17.94;63.18
79540;BME280;68991;52.122;5.406;2023-11-22T03:56:04;103105.31;;;17.92;63.11
79540;BME280;68991;52.122;5.406;2023-11-22T03:58:31;103114.44;;;17.92;63.23
79540;BME280;68991;52.122;5.406;2023-11-22T04:00:58;103108.16;;;17.89;63.50
79540;BME280;68991;52.122;5.406;2023-11-22T04:03:25;103116.34;;;17.89;63.60
79540;BME280;68991;52.122;5.406;2023-11-22T04:05:51;103127.31;;;17.88;63.07
79540;BME280;68991;52.122;5.406;2023-11-22T04:08:18;103125.53;;;17.87;63.05
79540;BME280;68991;52.122;5.406;2023-11-22T04:10:44;103135.59;;;17.85;63.04
79540;BME280;68991;52.122;5.406;2023-11-22T04:13:11;103134.72;;;17.84;63.14
79540;BME280;68991;52.122;5.406;2023-11-22T04:15:38;103137.50;;;17.83;63.01
79540;BME280;68991;52.122;5.406;2023-11-22T04:18:05;103133.97;;;17.81;63.03
79540;BME280;68991;52.122;5.406;2023-11-22T04:20:32;103134.91;;;17.80;62.72
79540;BME280;68991;52.122;5.406;2023-11-22T04:22:58;103143.13;;;17.78;63.10
79540;BME280;68991;52.122;5.406;2023-11-22T04:25:25;103135.94;;;17.77;63.05
79540;BME280;68991;52.122;5.406;2023-11-22T04:27:51;103139.59;;;17.76;62.87
79540;BME280;68991;52.122;5.406;2023-11-22T04:30:18;103143.22;;;17.77;63.20
79540;BME280;68991;52.122;5.406;2023-11-22T04:32:44;103140.53;;;17.75;63.36
79540;BME280;68991;52.122;5.406;2023-11-22T04:35:11;103147.91;;;17.73;62.93
79540;BME280;68991;52.122;5.406;2023-11-22T04:37:38;103156.09;;;17.72;62.97
79540;BME280;68991;52.122;5.406;2023-11-22T04:40:05;103152.50;;;17.71;63.00
79540;BME280;68991;52.122;5.406;2023-11-22T04:42:35;103156.09;;;17.72;63.89
79540;BME280;68991;52.122;5.406;2023-11-22T04:45:06;103154.22;;;17.74;63.24
79540;BME280;68991;52.122;5.406;2023-11-22T04:47:33;103152.41;;;17.74;63.40
79540;BME280;68991;52.122;5.406;2023-11-22T04:49:59;103153.34;;;17.73;63.53
79540;BME280;68991;52.122;5.406;2023-11-22T04:52:26;103149.78;;;17.71;63.60
79540;BME280;68991;52.122;5.406;2023-11-22T04:54:55;103146.19;;;17.71;63.91
79540;BME280;68991;52.122;5.406;2023-11-22T04:57:22;103141.69;;;17.70;63.39
79540;BME280;68991;52.122;5.406;2023-11-22T04:59:48;103146.19;;;17.71;63.90
79540;BME280;68991;52.122;5.406;2023-11-22T05:02:14;103139.78;;;17.72;63.48
79540;BME280;68991;52.122;5.406;2023-11-22T05:04:42;103134.34;;;17.72;63.83
79540;BME280;68991;52.122;5.406;2023-11-22T05:07:09;103138.03;;;17.71;63.79
79540;BME280;68991;52.122;5.406;2023-11-22T05:09:35;103128.00;;;17.71;63.35
79540;BME280;68991;52.122;5.406;2023-11-22T05:12:02;103132.59;;;17.71;63.47
79540;BME280;68991;52.122;5.406;2023-11-22T05:14:30;103128.97;;;17.70;63.85
79540;BME280;68991;52.122;5.406;2023-11-22T05:16:56;103134.47;;;17.69;63.60
79540;BME280;68991;52.122;5.406;2023-11-22T05:19:23;103129.94;;;17.69;63.33
79540;BME280;68991;52.122;5.406;2023-11-22T05:21:49;103133.59;;;17.68;63.92
79540;BME280;68991;52.122;5.406;2023-11-22T05:24:16;103137.28;;;17.67;63.85
79540;BME280;68991;52.122;5.406;2023-11-22T05:26:42;103142.72;;;17.67;63.71
79540;BME280;68991;52.122;5.406;2023-11-22T05:29:09;103129.19;;;17.66;63.70
79540;BME280;68991;52.122;5.406;2023-11-22T05:31:36;103127.41;;;17.65;63.89
79540;BME280;68991;52.122;5.406;2023-11-22T05:34:03;103143.72;;;17.65;63.54
79540;BME280;68991;52.122;5.406;2023-11-22T05:36:30;103135.63;;;17.63;63.56
79540;BME280;68991;52.122;5.406;2023-11-22T05:38:56;103136.59;;;17.62;63.51
79540;BME280;68991;52.122;5.406;2023-11-22T05:41:26;103142.97;;;17.61;63.69
79540;BME280;68991;52.122;5.406;2023-11-22T05:43:53;103143.09;;;17.58;63.65
79540;BME280;68991;52.122;5.406;2023-11-22T05:46:20;103146.72;;;17.59;62.92
79540;BME280;68991;52.122;5.406;2023-11-22T05:48:51;103153.09;;;17.58;62.61
79540;BME280;68991;52.122;5.406;2023-11-22T05:51:18;103161.34;;;17.56;62.56
79540;BME280;68991;52.122;5.406;2023-11-22T05:53:45;103165.91;;;17.54;62.20
79540;BME280;68991;52.122;5.406;2023-11-22T05:56:12;103166.88;;;17.53;62.19
79540;BME280;68991;52.122;5.406;2023-11-22T05:58:38;103152.44;;;17.51;62.07
79540;BME280;68991;52.122;5.406;2023-11-22T06:01:05;103159.78;;;17.49;61.75
79540;BME280;68991;52.122;5.406;2023-11-22T06:03:33;103161.66;;;17.47;61.43
79540;BME280;68991;52.122;5.406;2023-11-22T06:06:00;103155.41;;;17.45;61.45
79540;BME280;68991;52.122;5.406;2023-11-22T06:08:26;103158.25;;;17.42;61.61
79540;BME280;68991;52.122;5.406;2023-11-22T06:10:53;103162.94;;;17.38;61.07
79540;BME280;68991;52.122;5.406;2023-11-22T06:13:19;103165.78;;;17.35;61.19
79540;BME280;68991;52.122;5.406;2023-11-22T06:15:46;103163.06;;;17.35;61.73
79540;BME280;68991;52.122;5.406;2023-11-22T06:18:12;103153.19;;;17.33;61.44
79540;BME280;68991;52.122;5.406;2023-11-22T06:20:40;103161.28;;;17.34;61.17
79540;BME280;68991;52.122;5.406;2023-11-22T06:23:06;103161.28;;;17.34;61.51
79540;BME280;68991;52.122;5.406;2023-11-22T06:25:33;103166.78;;;17.33;61.69
79540;BME280;68991;52.122;5.406;2023-11-22T06:28:00;103180.38;;;17.33;61.52
79540;BME280;68991;52.122;5.406;2023-11-22T06:30:28;103185.91;;;17.31;61.70
79540;BME280;68991;52.122;5.406;2023-11-22T06:32:56;103186.78;;;17.32;61.65
79540;BME280;68991;52.122;5.406;2023-11-22T06:35:23;103192.22;;;17.32;61.46
79540;BME280;68991;52.122;5.406;2023-11-22T06:37:49;103187.63;;;17.32;61.31
79540;BME280;68991;52.122;5.406;2023-11-22T06:40:16;103185.00;;;17.31;61.34
79540;BME280;68991;52.122;5.406;2023-11-22T06:42:43;103175.06;;;17.30;61.47
79540;BME280;68991;52.122;5.406;2023-11-22T06:45:10;103165.13;;;17.29;61.54
79540;BME280;68991;52.122;5.406;2023-11-22T06:47:36;103169.75;;;17.27;61.63
79540;BME280;68991;52.122;5.406;2023-11-22T06:50:04;103162.53;;;17.26;61.49
79540;BME280;68991;52.122;5.406;2023-11-22T06:52:36;103161.72;;;17.24;61.59
79540;BME280;68991;52.122;5.406;2023-11-22T06:55:02;103152.72;;;17.22;61.72
79540;BME280;68991;52.122;5.406;2023-11-22T06:57:29;103152.81;;;17.20;62.02
79540;BME280;68991;52.122;5.406;2023-11-22T06:59:56;103149.34;;;17.17;61.76
79540;BME280;68991;52.122;5.406;2023-11-22T07:02:23;103155.72;;;17.16;61.72
79540;BME280;68991;52.122;5.406;2023-11-22T07:04:49;103158.31;;;17.19;61.73
79540;BME280;68991;52.122;5.406;2023-11-22T07:07:16;103151.94;;;17.20;61.53
79540;BME280;68991;52.122;5.406;2023-11-22T07:09:43;103161.88;;;17.21;61.51
79540;BME280;68991;52.122;5.406;2023-11-22T07:12:10;103170.00;;;17.21;61.96
79540;BME280;68991;52.122;5.406;2023-11-22T07:14:36;103160.88;;;17.22;62.48
79540;BME280;68991;52.122;5.406;2023-11-22T07:17:03;103174.44;;;17.23;62.50
79540;BME280;68991;52.122;5.406;2023-11-22T07:19:33;103179.81;;;17.25;62.96
79540;BME280;68991;52.122;5.406;2023-11-22T07:22:04;103180.69;;;17.25;63.14
79540;BME280;68991;52.122;5.406;2023-11-22T07:24:50;103184.28;;;17.26;62.92
79540;BME280;68991;52.122;5.406;2023-11-22T07:27:27;103169.88;;;17.24;63.31
79540;BME280;68991;52.122;5.406;2023-11-22T07:29:54;103168.94;;;17.25;63.65
79540;BME280;68991;52.122;5.406;2023-11-22T07:32:21;103174.31;;;17.26;63.67
79540;BME280;68991;52.122;5.406;2023-11-22T07:34:47;103179.75;;;17.26;63.46
79540;BME280;68991;52.122;5.406;2023-11-22T07:37:14;103170.78;;;17.24;63.54
79540;BME280;68991;52.122;5.406;2023-11-22T07:39:41;103173.41;;;17.26;63.75
79540;BME280;68991;52.122;5.406;2023-11-22T07:42:09;103181.56;;;17.26;63.54
79540;BME280;68991;52.122;5.406;2023-11-22T07:44:36;103195.16;;;17.26;63.82
79540;BME280;68991;52.122;5.406;2023-11-22T07:47:04;103191.56;;;17.25;63.83
79540;BME280;68991;52.122;5.406;2023-11-22T07:49:38;103184.28;;;17.26;64.02
79540;BME280;68991;52.122;5.406;2023-11-22T07:52:05;103184.28;;;17.26;63.84
79540;BME280;68991;52.122;5.406;2023-11-22T07:54:32;103180.69;;;17.25;64.20
79540;BME280;68991;52.122;5.406;2023-11-22T07:56:59;103176.13;;;17.26;63.76
79540;BME280;68991;52.122;5.406;2023-11-22T07:59:25;103189.72;;;17.26;63.84
79540;BME280;68991;52.122;5.406;2023-11-22T08:01:53;103193.34;;;17.26;63.86
79540;BME280;68991;52.122;5.406;2023-11-22T08:04:20;103213.25;;;17.27;64.11
79540;BME280;68991;52.122;5.406;2023-11-22T08:06:46;103221.38;;;17.28;64.21
79540;BME280;68991;52.122;5.406;2023-11-22T08:09:14;103225.78;;;17.31;63.97
79540;BME280;68991;52.122;5.406;2023-11-22T08:11:42;103241.22;;;17.30;63.96
79540;BME280;68991;52.122;5.406;2023-11-22T08:14:09;103234.88;;;17.30;63.97
79540;BME280;68991;52.122;5.406;2023-11-22T08:16:35;103243.97;;;17.29;63.94
79540;BME280;68991;52.122;5.406;2023-11-22T08:19:05;103249.38;;;17.30;64.08
79540;BME280;68991;52.122;5.406;2023-11-22T08:21:34;103245.84;;;17.28;63.87
79540;BME280;68991;52.122;5.406;2023-11-22T08:24:00;103241.25;;;17.29;64.09
79540;BME280;68991;52.122;5.406;2023-11-22T08:26:27;103248.56;;;17.28;63.84
79540;BME280;68991;52.122;5.406;2023-11-22T08:28:54;103253.09;;;17.28;63.77
79540;BME280;68991;52.122;5.406;2023-11-22T08:31:21;103249.41;;;17.29;63.79
79540;BME280;68991;52.122;5.406;2023-11-22T08:33:48;103236.78;;;17.28;63.86
79540;BME280;68991;52.122;5.406;2023-11-22T08:36:14;103239.50;;;17.28;64.02
79540;BME280;68991;52.122;5.406;2023-11-22T08:38:41;103248.47;;;17.30;63.72
79540;BME280;68991;52.122;5.406;2023-11-22T08:41:09;103244.88;;;17.29;63.67
79540;BME280;68991;52.122;5.406;2023-11-22T08:43:40;103238.53;;;17.29;63.73
79540;BME280;68991;52.122;5.406;2023-11-22T08:46:07;103237.69;;;17.28;63.79
79540;BME280;68991;52.122;5.406;2023-11-22T08:48:41;103234.00;;;17.29;63.60
79540;BME280;68991;52.122;5.406;2023-11-22T08:51:08;103234.88;;;17.30;63.55
79540;BME280;68991;52.122;5.406;2023-11-22T08:53:36;103240.31;;;17.30;63.95
79540;BME280;68991;52.122;5.406;2023-11-22T08:56:03;103235.78;;;17.30;63.67
79540;BME280;68991;52.122;5.406;2023-11-22T08:58:32;103235.78;;;17.30;63.83
79540;BME280;68991;52.122;5.406;2023-11-22T09:01:00;103240.31;;;17.30;63.51
79540;BME280;68991;52.122;5.406;2023-11-22T09:03:26;103239.38;;;17.31;63.93
79540;BME280;68991;52.122;5.406;2023-11-22T09:05:53;103235.78;;;17.30;63.72
79540;BME280;68991;52.122;5.406;2023-11-22T09:08:20;103232.13;;;17.31;63.57
79540;BME280;68991;52.122;5.406;2023-11-22T09:10:53;103244.81;;;17.31;63.60
79540;BME280;68991;52.122;5.406;2023-11-22T09:13:19;103237.56;;;17.31;63.39
79540;BME280;68991;52.122;5.406;2023-11-22T09:15:47;103239.38;;;17.31;63.80
79540;BME280;68991;52.122;5.406;2023-11-22T09:18:13;103234.84;;;17.31;63.01
79540;BME280;68991;52.122;5.406;2023-11-22T09:20:42;103238.44;;;17.32;63.26
79540;BME280;68991;52.122;5.406;2023-11-22T09:23:11;103243.00;;;17.31;63.37
79540;BME280;68991;52.122;5.406;2023-11-22T09:25:40;103252.97;;;17.31;63.39
79540;BME280;68991;52.122;5.406;2023-11-22T09:28:07;103246.59;;;17.32;63.44
79540;BME280;68991;52.122;5.406;2023-11-22T09:30:35;103252.97;;;17.31;62.99
79540;BME280;68991;52.122;5.406;2023-11-22T09:33:14;103249.38;;;17.30;63.25
79540;BME280;68991;52.122;5.406;2023-11-22T09:35:43;103252.09;;;17.30;63.18
79540;BME280;68991;52.122;5.406;2023-11-22T09:38:11;103256.59;;;17.31;63.31
79540;BME280;68991;52.122;5.406;2023-11-22T09:40:46;103253.91;;;17.30;63.30
79540;BME280;68991;52.122;5.406;2023-11-22T09:43:14;103249.38;;;17.30;63.34
79540;BME280;68991;52.122;5.406;2023-11-22T09:45:49;103242.16;;;17.29;63.05
79540;BME280;68991;52.122;5.406;2023-11-22T09:48:22;103243.13;;;17.28;63.18
79540;BME280;68991;52.122;5.406;2023-11-22T09:56:01;103254.84;;;17.29;62.90
79540;BME280;68991;52.122;5.406;2023-11-22T09:58:30;103258.47;;;17.29;63.17
79540;BME280;68991;52.122;5.406;2023-11-22T10:00:59;103253.03;;;17.29;63.00
79540;BME280;68991;52.122;5.406;2023-11-22T10:03:27;103254.00;;;17.28;63.09
79540;BME280;68991;52.122;5.406;2023-11-22T10:05:57;103249.50;;;17.27;62.92
79540;BME280;68991;52.122;5.406;2023-11-22T10:08:30;103237.69;;;17.28;62.97
79540;BME280;68991;52.122;5.406;2023-11-22T10:10:58;103231.34;;;17.28;62.80
79540;BME280;68991;52.122;5.406;2023-11-22T10:13:26;103230.50;;;17.26;62.78
79540;BME280;68991;52.122;5.406;2023-11-22T10:15:53;103217.81;;;17.26;62.66
79540;BME280;68991;52.122;5.406;2023-11-22T10:18:20;103215.09;;;17.26;62.57
79540;BME280;68991;52.122;5.406;2023-11-22T10:20:48;103226.03;;;17.25;62.63
79540;BME280;68991;52.122;5.406;2023-11-22T10:23:19;103226.03;;;17.25;62.95
79540;BME280;68991;52.122;5.406;2023-11-22T10:25:53;103226.03;;;17.25;62.76
79540;BME280;68991;52.122;5.406;2023-11-22T10:28:20;103223.31;;;17.25;62.54
79540;BME280;68991;52.122;5.406;2023-11-22T10:30:48;103223.31;;;17.25;62.67
79540;BME280;68991;52.122;5.406;2023-11-22T10:33:16;103225.16;;;17.24;62.90
79540;BME280;68991;52.122;5.406;2023-11-22T10:35:44;103210.59;;;17.25;62.70
79540;BME280;68991;52.122;5.406;2023-11-22T10:38:14;103204.28;;;17.25;62.64
79540;BME280;68991;52.122;5.406;2023-11-22T10:40:41;103203.31;;;17.26;62.55
79540;BME280;68991;52.122;5.406;2023-11-22T10:43:11;103205.09;;;17.27;62.58
79540;BME280;68991;52.122;5.406;2023-11-22T10:45:38;103204.16;;;17.28;62.51
79540;BME280;68991;52.122;5.406;2023-11-22T10:48:07;103187.78;;;17.29;62.48
79540;BME280;68991;52.122;5.406;2023-11-22T10:50:35;103185.94;;;17.30;62.43
79540;BME280;68991;52.122;5.406;2023-11-22T10:53:06;103187.84;;;17.28;62.35
79540;BME280;68991;52.122;5.406;2023-11-22T10:55:34;103186.03;;;17.28;62.44
79540;BME280;68991;52.122;5.406;2023-11-22T10:58:04;103180.50;;;17.30;62.33
79540;BME280;68991;52.122;5.406;2023-11-22T11:00:33;103185.94;;;17.30;62.40
79540;BME280;68991;52.122;5.406;2023-11-22T11:03:04;103201.38;;;17.29;62.32
79540;BME280;68991;52.122;5.406;2023-11-22T11:05:34;103202.25;;;17.30;62.55
79540;BME280;68991;52.122;5.406;2023-11-22T11:08:09;103193.16;;;17.31;62.43
79540;BME280;68991;52.122;5.406;2023-11-22T11:10:44;103195.81;;;17.32;62.38
79540;BME280;68991;52.122;5.406;2023-11-22T11:13:12;103174.03;;;17.32;62.26
79540;BME280;68991;52.122;5.406;2023-11-22T11:15:41;103159.50;;;17.33;62.12
79540;BME280;68991;52.122;5.406;2023-11-22T11:18:16;103142.31;;;17.33;62.15
79540;BME280;68991;52.122;5.406;2023-11-22T11:20:49;103131.38;;;17.34;62.23
79540;BME280;68991;52.122;5.406;2023-11-22T11:23:20;103126.84;;;17.35;62.13
79540;BME280;68991;52.122;5.406;2023-11-22T11:25:59;103116.91;;;17.34;62.07
79540;BME280;68991;52.122;5.406;2023-11-22T11:28:49;103108.78;;;17.32;62.07
79540;BME280;68991;52.122;5.406;2023-11-22T11:31:16;103125.06;;;17.34;62.12
79540;BME280;68991;52.122;5.406;2023-11-22T11:36:30;103102.50;;;17.32;62.14
79540;BME280;68991;52.122;5.406;2023-11-22T11:39:00;103083.47;;;17.32;62.05
79540;BME280;68991;52.122;5.406;2023-11-22T11:41:32;103083.47;;;17.32;61.93
79540;BME280;68991;52.122;5.406;2023-11-22T11:44:01;103091.63;;;17.32;61.98
79540;BME280;68991;52.122;5.406;2023-11-22T11:46:29;103089.75;;;17.32;61.93
79540;BME280;68991;52.122;5.406;2023-11-22T11:48:56;103089.75;;;17.32;61.95
79540;BME280;68991;52.122;5.406;2023-11-22T11:51:25;103091.63;;;17.32;62.07
79540;BME280;68991;52.122;5.406;2023-11-22T11:53:52;103095.16;;;17.34;62.14
79540;BME280;68991;52.122;5.406;2023-11-22T11:56:20;103094.25;;;17.33;61.84
79540;BME280;68991;52.122;5.406;2023-11-22T11:58:49;103087.94;;;17.33;62.10
79540;BME280;68991;52.122;5.406;2023-11-22T12:01:16;103089.72;;;17.34;61.73
79540;BME280;68991;52.122;5.406;2023-11-22T12:03:43;103089.72;;;17.34;61.90
79540;BME280;68991;52.122;5.406;2023-11-22T12:06:14;103084.22;;;17.35;61.86
79540;BME280;68991;52.122;5.406;2023-11-22T12:08:40;103088.69;;;17.36;61.95
79540;BME280;68991;52.122;5.406;2023-11-22T12:11:07;103080.63;;;17.35;61.44
79540;BME280;68991;52.122;5.406;2023-11-22T12:13:35;103069.75;;;17.35;61.59
79540;BME280;68991;52.122;5.406;2023-11-22T12:16:05;103076.81;;;17.39;61.44
79540;BME280;68991;52.122;5.406;2023-11-22T12:18:44;103083.94;;;17.41;61.49
79540;BME280;68991;52.122;5.406;2023-11-22T12:21:11;103076.56;;;17.45;61.72
79540;BME280;68991;52.122;5.406;2023-11-22T12:23:42;103067.31;;;17.49;62.08
79540;BME280;68991;52.122;5.406;2023-11-22T12:26:11;103068.97;;;17.53;61.82
79540;BME280;68991;52.122;5.406;2023-11-22T12:28:39;103068.31;;;17.68;61.82
79540;BME280;68991;52.122;5.406;2023-11-22T12:31:12;103052.34;;;17.81;61.66
79540;BME280;68991;52.122;5.406;2023-11-22T12:33:43;103061.66;;;17.96;61.50
79540;BME280;68991;52.122;5.406;2023-11-22T12:36:11;103061.22;;;18.05;61.38
79540;BME280;68991;52.122;5.406;2023-11-22T12:38:42;103059.19;;;18.10;61.39
79540;BME280;68991;52.122;5.406;2023-11-22T12:41:09;103065.38;;;18.13;61.44
79540;BME280;68991;52.122;5.406;2023-11-22T12:43:35;103049.78;;;18.17;61.73
79540;BME280;68991;52.122;5.406;2023-11-22T12:46:13;103052.28;;;18.21;61.64
79540;BME280;68991;52.122;5.406;2023-11-22T12:48:42;103042.00;;;18.28;61.32
79540;BME280;68991;52.122;5.406;2023-11-22T12:51:17;103038.84;;;18.37;61.40
79540;BME280;68991;52.122;5.406;2023-11-22T12:53:48;103035.66;;;18.46;61.42
79540;BME280;68991;52.122;5.406;2023-11-22T12:56:16;103030.78;;;18.54;61.19
79540;BME280;68991;52.122;5.406;2023-11-22T12:58:43;103026.78;;;18.61;61.31
79540;BME280;68991;52.122;5.406;2023-11-22T13:01:09;103023.75;;;18.67;60.84
79540;BME280;68991;52.122;5.406;2023-11-22T13:03:36;103018.97;;;18.72;60.82